createdAt,value
2022-09-20T00:14:53.306Z,89.81
2022-09-20T00:31:43.251Z,89.38
2022-09-20T00:48:34.850Z,88.96
2022-09-20T01:05:23.263Z,88.88
2022-09-20T01:22:22.709Z,89.29
2022-09-20T01:39:20.156Z,89.44
2022-09-20T01:56:39.879Z,89.34
2022-09-20T02:13:35.193Z,89.07
2022-09-20T02:30:36.713Z,89.32
2022-09-20T02:47:34.582Z,89.35
2022-09-20T03:04:49.235Z,89.52
2022-09-20T03:21:45.272Z,89.54
2022-09-20T03:39:05.374Z,89.56
2022-09-20T03:56:19.074Z,89.74
2022-09-20T04:13:27.335Z,89.31
2022-09-20T04:30:21.059Z,89.15
2022-09-20T04:47:52.007Z,89.02
2022-09-20T05:05:14.863Z,89.08
2022-09-20T05:22:27.337Z,88.67
2022-09-20T05:39:30.271Z,88.64
2022-09-20T05:56:28.430Z,88.18
2022-09-20T06:14:00.740Z,87.93
2022-09-20T06:30:52.123Z,87.90
2022-09-20T06:47:40.673Z,87.61
2022-09-20T07:04:29.894Z,87.65
2022-09-20T07:21:19.824Z,88.00
2022-09-20T07:38:08.929Z,88.72
2022-09-20T07:54:57.947Z,89.47
2022-09-20T08:11:46.612Z,90.00
2022-09-20T08:28:35.678Z,90.26
2022-09-20T08:45:35.605Z,90.55
2022-09-20T09:02:26.842Z,91.01
2022-09-20T09:19:37.008Z,91.15
2022-09-20T09:36:27.746Z,91.38
2022-09-20T09:53:18.394Z,91.72
2022-09-20T10:10:22.380Z,91.92
2022-09-20T10:27:35.077Z,92.51
2022-09-20T10:44:41.593Z,92.37
2022-09-20T11:01:39.898Z,91.52
2022-09-20T11:18:36.011Z,89.96
2022-09-20T11:35:35.999Z,88.59
2022-09-20T11:52:45.216Z,86.09
2022-09-20T12:09:39.055Z,84.52
2022-09-20T12:26:44.853Z,83.88
2022-09-20T12:43:37.444Z,82.80
2022-09-20T13:00:39.212Z,81.18
2022-09-20T13:17:32.089Z,79.14
2022-09-20T13:34:27.930Z,77.55
2022-09-20T13:51:27.911Z,78.26
2022-09-20T14:08:23.159Z,79.55
2022-09-20T14:25:27.498Z,83.42
2022-09-20T14:42:25.762Z,86.62
2022-09-20T14:59:30.785Z,88.38
2022-09-20T15:16:22.133Z,87.72
2022-09-20T15:33:12.202Z,84.82
2022-09-20T15:50:00.470Z,84.91
2022-09-20T16:06:51.295Z,84.66
2022-09-20T16:23:39.958Z,83.76
2022-09-20T16:40:28.229Z,84.99
2022-09-20T16:57:16.401Z,86.35
2022-09-20T17:14:07.905Z,88.26
2022-09-20T17:31:01.212Z,89.84
2022-09-20T17:47:52.010Z,90.72
2022-09-20T18:04:42.750Z,91.46
2022-09-20T18:21:35.764Z,91.77
2022-09-20T18:38:25.913Z,91.83
2022-09-20T18:55:15.982Z,92.16
2022-09-20T19:12:09.092Z,92.14
2022-09-20T19:29:02.438Z,92.17
2022-09-20T19:45:58.784Z,92.05
2022-09-20T20:02:51.509Z,90.98
2022-09-20T20:19:56.314Z,89.99
2022-09-20T20:36:45.514Z,89.78
2022-09-20T20:53:38.905Z,89.62
2022-09-20T21:10:29.135Z,89.37
2022-09-20T21:27:21.064Z,89.17
2022-09-20T21:44:12.489Z,88.95
2022-09-20T22:01:02.843Z,88.61
2022-09-20T22:17:54.742Z,88.65
2022-09-20T22:34:43.138Z,88.44
2022-09-20T22:51:35.038Z,88.06
2022-09-20T23:08:25.394Z,88.46
2022-09-20T23:25:16.248Z,88.91
2022-09-20T23:42:05.575Z,88.60
2022-09-20T23:58:54.364Z,88.94
